Time;durP1;ratioP1;P1;durP2;ratioP2;P2;SDS_P1;SDS_P2;PMS_P1;PMS_P2;Temp;Humidity;BMP_temperature;BMP_pressure;BME280_temperature;BME280_humidity;BME280_pressure;Samples;Min_cycle;Max_cycle;Signal;HPM_P1;HPM_P2
2021/01/28 00:01:28;;;;;;;11.80;10.70;;;;;;;;;;5081458;28;20013;-58
2021/01/28 00:03:53;;;;;;;11.20;8.47;;;;;;;;;;5086842;28;20016;-56
2021/01/28 00:06:18;;;;;;;9.73;8.73;;;;;;;;;;5079960;28;20103;-58
2021/01/28 00:08:44;;;;;;;5.37;3.23;;;;;;;;;;5085566;28;20111;-56
2021/01/28 00:11:09;;;;;;;9.63;8.83;;;;;;;;;;5086232;28;20046;-57
2021/01/28 00:13:34;;;;;;;9.47;8.10;;;;;;;;;;5085529;28;20111;-58
2021/01/28 00:15:59;;;;;;;10.13;8.57;;;;;;;;;;5082646;28;20023;-56
2021/01/28 00:18:25;;;;;;;9.87;8.80;;;;;;;;;;5088711;28;20032;-58
2021/01/28 00:20:50;;;;;;;10.73;9.63;;;;;;;;;;5086124;28;20028;-56
2021/01/28 00:23:16;;;;;;;3.70;2.97;;;;;;;;;;5078795;28;20020;-59
2021/01/28 00:25:41;;;;;;;12.30;9.33;;;;;;;;;;5084432;28;20016;-58
2021/01/28 00:28:08;;;;;;;11.07;7.77;;;;;;;;;;5086425;28;20135;-58
2021/01/28 00:30:36;;;;;;;8.97;6.43;;;;;;;;;;5083705;28;20522;-59
2021/01/28 00:33:02;;;;;;;11.90;9.07;;;;;;;;;;5083110;28;20023;-58
2021/01/28 00:35:32;;;;;;;11.17;9.47;;;;;;;;;;5080125;28;20025;-57
2021/01/28 00:37:58;;;;;;;3.07;2.40;;;;;;;;;;5081940;28;20020;-59
2021/01/28 00:40:25;;;;;;;13.10;8.43;;;;;;;;;;5079705;28;20017;-58
2021/01/28 00:42:50;;;;;;;12.03;8.87;;;;;;;;;;5082708;28;20107;-58
2021/01/28 00:45:16;;;;;;;9.90;6.77;;;;;;;;;;5087361;28;20123;-55
2021/01/28 00:47:42;;;;;;;9.63;8.70;;;;;;;;;;5083148;28;20501;-58
2021/01/28 00:50:07;;;;;;;9.60;7.40;;;;;;;;;;5085227;28;20012;-57
2021/01/28 00:52:32;;;;;;;8.87;7.90;;;;;;;;;;5084451;28;20470;-56
2021/01/28 00:54:58;;;;;;;7.20;5.90;;;;;;;;;;5081345;28;20040;-57
2021/01/28 00:57:23;;;;;;;8.50;7.60;;;;;;;;;;5084118;28;20421;-56
2021/01/28 00:59:48;;;;;;;7.17;5.70;;;;;;;;;;5082796;28;20015;-57
2021/01/28 01:02:13;;;;;;;8.43;6.30;;;;;;;;;;5081399;28;20547;-58
2021/01/28 01:04:38;;;;;;;5.37;4.47;;;;;;;;;;5085346;28;20016;-58
2021/01/28 01:07:04;;;;;;;5.53;5.00;;;;;;;;;;5084122;28;20031;-58
2021/01/28 01:09:29;;;;;;;5.57;4.77;;;;;;;;;;5082266;28;20070;-56
2021/01/28 01:11:54;;;;;;;6.63;5.27;;;;;;;;;;5082827;28;20390;-58
2021/01/28 01:14:20;;;;;;;6.93;6.07;;;;;;;;;;5086042;28;20027;-59
2021/01/28 01:16:45;;;;;;;7.87;3.43;;;;;;;;;;5085340;28;20012;-58
2021/01/28 01:19:11;;;;;;;7.80;6.00;;;;;;;;;;5087580;28;20020;-57
2021/01/28 01:21:36;;;;;;;6.13;5.53;;;;;;;;;;5083537;28;20111;-57
2021/01/28 01:24:01;;;;;;;6.87;6.17;;;;;;;;;;5085112;28;20069;-57
2021/01/28 01:26:27;;;;;;;6.67;5.53;;;;;;;;;;5085707;28;20070;-58
2021/01/28 01:28:52;;;;;;;5.33;4.77;;;;;;;;;;5088629;28;20048;-57
2021/01/28 01:31:17;;;;;;;3.30;2.60;;;;;;;;;;5086840;28;20020;-58
2021/01/28 01:33:42;;;;;;;6.13;5.57;;;;;;;;;;5090409;28;20095;-59
2021/01/28 01:36:08;;;;;;;6.07;5.47;;;;;;;;;;5085042;28;20068;-58
2021/01/28 01:38:33;;;;;;;6.07;5.43;;;;;;;;;;5088915;28;20478;-57
2021/01/28 01:40:58;;;;;;;6.50;5.80;;;;;;;;;;5088116;28;20028;-58
2021/01/28 01:43:24;;;;;;;6.27;5.23;;;;;;;;;;5085374;28;20016;-57
2021/01/28 01:45:52;;;;;;;4.57;3.97;;;;;;;;;;5081607;28;20379;-58
2021/01/28 01:48:19;;;;;;;4.50;2.70;;;;;;;;;;5082351;28;20043;-58
2021/01/28 01:51:02;;;;;;;3.80;3.47;;;;;;;;;;5083211;28;20095;-55
2021/01/28 01:53:48;;;;;;;4.83;4.33;;;;;;;;;;5086475;28;20016;-57
2021/01/28 01:56:16;;;;;;;1.70;1.52;;;;;;;;;;5069075;28;20089;-57
2021/01/28 01:58:47;;;;;;;5.13;3.83;;;;;;;;;;5087051;28;20387;-58
2021/01/28 02:01:13;;;;;;;6.77;4.27;;;;;;;;;;5087157;28;20421;-56
2021/01/28 02:03:39;;;;;;;6.40;5.13;;;;;;;;;;5091238;28;20013;-56
2021/01/28 02:06:08;;;;;;;4.53;3.97;;;;;;;;;;5081734;28;20027;-57
2021/01/28 02:08:33;;;;;;;3.97;3.63;;;;;;;;;;5085472;28;20031;-58
2021/01/28 02:11:03;;;;;;;4.90;4.43;;;;;;;;;;5081205;28;20020;-57
2021/01/28 02:13:28;;;;;;;4.60;3.90;;;;;;;;;;5084426;28;20024;-58
2021/01/28 02:15:53;;;;;;;4.57;4.00;;;;;;;;;;5086044;28;20072;-55
2021/01/28 02:18:18;;;;;;;2.93;2.63;;;;;;;;;;5084818;28;20024;-57
2021/01/28 02:20:51;;;;;;;3.67;2.87;;;;;;;;;;5088079;28;20478;-57
2021/01/28 02:23:21;;;;;;;5.17;4.67;;;;;;;;;;5084624;28;20020;-55
2021/01/28 02:25:48;;;;;;;3.60;3.17;;;;;;;;;;5080557;28;20027;-55
2021/01/28 02:28:15;;;;;;;2.07;1.80;;;;;;;;;;5086242;28;20149;-56
2021/01/28 02:30:41;;;;;;;3.77;3.33;;;;;;;;;;5086437;28;20031;-57
2021/01/28 02:33:07;;;;;;;3.97;3.67;;;;;;;;;;5088345;28;20020;-57
2021/01/28 02:35:33;;;;;;;4.23;3.83;;;;;;;;;;5081465;28;20052;-58
2021/01/28 02:38:01;;;;;;;4.07;3.77;;;;;;;;;;5080374;28;20072;-58
2021/01/28 02:40:28;;;;;;;4.17;3.77;;;;;;;;;;5087309;28;20095;-56
2021/01/28 02:42:53;;;;;;;4.47;4.07;;;;;;;;;;5083517;28;20478;-56
2021/01/28 02:45:20;;;;;;;4.83;4.43;;;;;;;;;;5082102;28;20023;-59
2021/01/28 02:47:56;;;;;;;4.40;4.00;;;;;;;;;;5082463;28;20463;-58
2021/01/28 02:50:22;;;;;;;4.67;3.97;;;;;;;;;;5082303;28;20024;-57
2021/01/28 02:52:47;;;;;;;5.13;4.63;;;;;;;;;;5080439;28;20066;-57
2021/01/28 02:55:13;;;;;;;4.90;3.93;;;;;;;;;;5079950;28;20015;-58
2021/01/28 02:57:38;;;;;;;5.37;4.87;;;;;;;;;;5084392;28;20020;-58
2021/01/28 03:00:06;;;;;;;5.17;3.13;;;;;;;;;;5082421;28;20375;-56
2021/01/28 03:02:31;;;;;;;4.63;4.13;;;;;;;;;;5086104;28;20020;-57
2021/01/28 03:04:57;;;;;;;5.00;4.37;;;;;;;;;;5081213;28;20024;-59
2021/01/28 03:07:22;;;;;;;5.00;4.50;;;;;;;;;;5081481;28;20039;-53
2021/01/28 03:09:47;;;;;;;5.30;4.53;;;;;;;;;;5083872;28;20019;-56
2021/01/28 03:12:12;;;;;;;6.23;5.63;;;;;;;;;;5091350;28;20046;-56
2021/01/28 03:14:37;;;;;;;3.67;2.90;;;;;;;;;;5088665;28;20036;-58
2021/01/28 03:17:04;;;;;;;5.00;4.40;;;;;;;;;;5080413;28;20107;-59
2021/01/28 03:19:29;;;;;;;5.33;4.83;;;;;;;;;;5085571;28;20012;-59
2021/01/28 03:21:54;;;;;;;3.93;3.03;;;;;;;;;;5085471;28;20077;-58
2021/01/28 03:24:19;;;;;;;5.47;4.60;;;;;;;;;;5085424;28;20210;-58
2021/01/28 03:26:44;;;;;;;5.70;5.00;;;;;;;;;;5082087;28;20023;-59
2021/01/28 03:29:11;;;;;;;5.57;4.97;;;;;;;;;;5081465;28;20044;-59
2021/01/28 03:31:37;;;;;;;8.13;7.33;;;;;;;;;;5085115;28;20075;-57
2021/01/28 03:34:03;;;;;;;9.30;8.10;;;;;;;;;;5083434;28;20048;-58
2021/01/28 03:36:28;;;;;;;8.97;8.07;;;;;;;;;;5081971;28;20034;-57
2021/01/28 03:38:53;;;;;;;4.47;2.83;;;;;;;;;;5084803;28;20495;-60
2021/01/28 03:41:18;;;;;;;9.43;8.10;;;;;;;;;;5084780;28;20028;-56
2021/01/28 03:43:44;;;;;;;9.60;8.10;;;;;;;;;;5089453;28;20021;-57
2021/01/28 03:46:09;;;;;;;12.40;10.83;;;;;;;;;;5087261;28;20027;-59
2021/01/28 03:48:36;;;;;;;12.07;9.50;;;;;;;;;;5084481;28;20012;-58
2021/01/28 03:51:01;;;;;;;14.13;9.70;;;;;;;;;;5082444;28;20479;-58
2021/01/28 03:53:26;;;;;;;12.53;8.20;;;;;;;;;;5082501;28;20030;-56
2021/01/28 03:55:51;;;;;;;3.17;1.93;;;;;;;;;;5080141;28;20169;-58
2021/01/28 03:58:17;;;;;;;12.13;9.20;;;;;;;;;;5097679;28;20467;-56
2021/01/28 04:00:42;;;;;;;12.53;9.20;;;;;;;;;;5083099;28;20024;-58
2021/01/28 04:03:07;;;;;;;11.67;8.17;;;;;;;;;;5084943;28;20482;-56
2021/01/28 04:05:32;;;;;;;14.30;8.97;;;;;;;;;;5080275;28;20020;-55
2021/01/28 04:07:58;;;;;;;12.97;9.40;;;;;;;;;;5082142;28;20408;-57
2021/01/28 04:10:25;;;;;;;11.67;8.43;;;;;;;;;;5083014;28;20023;-59
2021/01/28 04:12:51;;;;;;;11.60;7.10;;;;;;;;;;5085565;28;20020;-57
2021/01/28 04:15:16;;;;;;;6.40;4.40;;;;;;;;;;5078073;28;20020;-57
2021/01/28 04:17:42;;;;;;;8.47;6.63;;;;;;;;;;5085930;28;20065;-56
2021/01/28 04:20:07;;;;;;;11.10;8.17;;;;;;;;;;5082046;28;20016;-58
2021/01/28 04:22:32;;;;;;;11.27;9.13;;;;;;;;;;5084615;28;20036;-59
2021/01/28 04:24:58;;;;;;;11.43;9.13;;;;;;;;;;5085948;28;20458;-59
2021/01/28 04:27:23;;;;;;;11.63;9.70;;;;;;;;;;5084165;28;20116;-58
2021/01/28 04:29:48;;;;;;;11.23;7.67;;;;;;;;;;5081359;28;20032;-58
2021/01/28 04:32:14;;;;;;;11.83;7.40;;;;;;;;;;5080242;28;20027;-53
2021/01/28 04:34:39;;;;;;;10.63;7.77;;;;;;;;;;5083693;28;20111;-58
2021/01/28 04:37:04;;;;;;;11.10;7.47;;;;;;;;;;5076529;28;20070;-56
2021/01/28 04:39:29;;;;;;;9.97;8.03;;;;;;;;;;5084223;28;20105;-59
2021/01/28 04:41:55;;;;;;;8.87;6.07;;;;;;;;;;5084950;28;20361;-58
2021/01/28 04:44:20;;;;;;;8.57;6.87;;;;;;;;;;5080590;28;20046;-56
2021/01/28 04:46:50;;;;;;;8.23;6.90;;;;;;;;;;5086586;28;20024;-57
2021/01/28 04:49:17;;;;;;;8.40;7.50;;;;;;;;;;5086167;28;20020;-58
2021/01/28 04:51:43;;;;;;;8.07;5.97;;;;;;;;;;5081746;28;20060;-57
2021/01/28 04:54:13;;;;;;;6.33;4.50;;;;;;;;;;5085589;28;20069;-59
2021/01/28 04:56:38;;;;;;;6.30;5.50;;;;;;;;;;5084754;28;20437;-58
2021/01/28 04:59:08;;;;;;;7.30;5.70;;;;;;;;;;5086359;28;20055;-57
2021/01/28 05:01:34;;;;;;;4.23;2.80;;;;;;;;;;5088293;28;20020;-59
2021/01/28 05:04:01;;;;;;;7.23;6.03;;;;;;;;;;5079260;28;20639;-55
2021/01/28 05:06:26;;;;;;;6.57;5.23;;;;;;;;;;5085445;28;20082;-59
2021/01/28 05:08:51;;;;;;;2.00;1.07;;;;;;;;;;5087657;28;20024;-59
2021/01/28 05:11:19;;;;;;;5.40;4.23;;;;;;;;;;5088372;28;20077;-60
2021/01/28 05:13:45;;;;;;;2.43;1.97;;;;;;;;;;5087909;28;20020;-58
2021/01/28 05:16:24;;;;;;;7.73;5.73;;;;;;;;;;5084008;28;20027;-58
2021/01/28 05:19:00;;;;;;;6.83;5.50;;;;;;;;;;5088335;28;20012;-55
2021/01/28 05:21:26;;;;;;;7.83;6.43;;;;;;;;;;5081645;28;20479;-59
2021/01/28 05:24:00;;;;;;;7.60;6.80;;;;;;;;;;5085544;28;20045;-59
2021/01/28 05:26:27;;;;;;;7.07;5.73;;;;;;;;;;5084670;28;20027;-58
2021/01/28 05:28:52;;;;;;;8.23;5.87;;;;;;;;;;5089567;28;20398;-57
2021/01/28 05:31:25;;;;;;;10.50;6.63;;;;;;;;;;5081389;28;20024;-57
2021/01/28 05:33:50;;;;;;;3.97;2.30;;;;;;;;;;5077868;28;20020;-56
2021/01/28 05:36:16;;;;;;;5.83;4.57;;;;;;;;;;5074480;28;20379;-57
2021/01/28 05:38:41;;;;;;;7.97;7.17;;;;;;;;;;5088350;28;20466;-55
2021/01/28 05:41:09;;;;;;;7.70;6.17;;;;;;;;;;5089788;28;20091;-57
2021/01/28 05:43:34;;;;;;;5.70;4.57;;;;;;;;;;5086004;28;20368;-58
2021/01/28 05:46:14;;;;;;;4.20;2.93;;;;;;;;;;5082215;28;20038;-59
2021/01/28 05:48:39;;;;;;;8.23;6.03;;;;;;;;;;5086063;28;20054;-58
2021/01/28 05:51:07;;;;;;;8.90;7.27;;;;;;;;;;5086359;28;20051;-57
2021/01/28 05:53:32;;;;;;;4.93;2.80;;;;;;;;;;5082441;28;20065;-59
2021/01/28 05:55:57;;;;;;;8.43;5.37;;;;;;;;;;5080580;28;20024;-59
2021/01/28 05:58:27;;;;;;;6.00;4.07;;;;;;;;;;5083712;28;20467;-59
2021/01/28 06:00:57;;;;;;;7.30;5.70;;;;;;;;;;5085137;28;20039;-59
2021/01/28 06:03:25;;;;;;;6.77;4.40;;;;;;;;;;5085487;28;20019;-59
2021/01/28 06:05:50;;;;;;;8.27;6.77;;;;;;;;;;5084136;28;20069;-58
2021/01/28 06:08:15;;;;;;;7.27;5.47;;;;;;;;;;5088325;28;20023;-60
2021/01/28 06:11:19;;;;;;;7.33;4.30;;;;;;;;;;5088821;28;20027;-59
2021/01/28 06:13:47;;;;;;;8.30;5.80;;;;;;;;;;5023177;28;20022;-58
2021/01/28 06:16:18;;;;;;;4.97;3.00;;;;;;;;;;5016497;28;20021;-58
2021/01/28 06:18:46;;;;;;;9.17;5.90;;;;;;;;;;5022565;28;20034;-58
2021/01/28 06:21:11;;;;;;;5.57;4.03;;;;;;;;;;5021925;28;20013;-58
2021/01/28 06:23:48;;;;;;;7.90;6.27;;;;;;;;;;5015242;28;21579;-57
2021/01/28 06:26:13;;;;;;;7.07;5.40;;;;;;;;;;5015949;28;20060;-59
2021/01/28 06:28:54;;;;;;;6.20;4.83;;;;;;;;;;5020220;28;20385;-59
2021/01/28 06:31:19;;;;;;;7.83;6.33;;;;;;;;;;5015919;28;20511;-59
2021/01/28 06:33:50;;;;;;;6.87;5.17;;;;;;;;;;5012071;28;20040;-57
2021/01/28 06:36:25;;;;;;;5.57;4.23;;;;;;;;;;4996351;28;20026;-59
2021/01/28 06:39:08;;;;;;;8.48;5.35;;;;;;;;;;5018612;28;20034;-55
2021/01/28 06:41:37;;;;;;;6.00;3.83;;;;;;;;;;5022572;28;20037;-60
2021/01/28 06:44:25;;;;;;;7.20;5.80;;;;;;;;;;5044266;28;20470;-58
2021/01/28 06:46:55;;;;;;;7.33;4.97;;;;;;;;;;5084635;28;20552;-58
2021/01/28 06:49:24;;;;;;;6.97;5.30;;;;;;;;;;5087477;28;20020;-58
2021/01/28 06:51:52;;;;;;;8.23;5.50;;;;;;;;;;5084036;28;20417;-59
2021/01/28 06:54:22;;;;;;;8.73;5.83;;;;;;;;;;5076325;28;20029;-59
2021/01/28 06:56:47;;;;;;;7.60;5.70;;;;;;;;;;5086185;28;20024;-60
2021/01/28 06:59:17;;;;;;;6.70;4.70;;;;;;;;;;5082312;28;20013;-58
2021/01/28 07:01:46;;;;;;;8.00;5.50;;;;;;;;;;5085604;28;20020;-59
2021/01/28 07:04:17;;;;;;;8.67;5.53;;;;;;;;;;5083091;28;20024;-59
2021/01/28 07:06:48;;;;;;;6.63;4.63;;;;;;;;;;5077750;28;20050;-58
2021/01/28 07:09:18;;;;;;;9.67;6.23;;;;;;;;;;5086925;28;20067;-59
2021/01/28 07:11:44;;;;;;;7.00;5.37;;;;;;;;;;5079059;28;20047;-57
2021/01/28 07:14:13;;;;;;;9.13;6.93;;;;;;;;;;5084863;28;20487;-57
2021/01/28 07:16:58;;;;;;;8.17;6.60;;;;;;;;;;5081934;28;20020;-56
2021/01/28 07:19:26;;;;;;;9.57;6.20;;;;;;;;;;5078980;28;20024;-58
2021/01/28 07:21:52;;;;;;;11.50;5.57;;;;;;;;;;5081982;28;20043;-59
2021/01/28 07:24:24;;;;;;;9.97;6.93;;;;;;;;;;5086782;28;20012;-59
2021/01/28 07:27:03;;;;;;;10.33;7.07;;;;;;;;;;5079715;28;20095;-59
2021/01/28 07:29:32;;;;;;;9.33;6.73;;;;;;;;;;5081576;28;20075;-57
2021/01/28 07:31:59;;;;;;;9.27;6.67;;;;;;;;;;5087611;28;20019;-58
2021/01/28 07:34:24;;;;;;;10.07;6.77;;;;;;;;;;5086757;28;20032;-56
2021/01/28 07:36:51;;;;;;;8.47;6.30;;;;;;;;;;5079709;28;20584;-57
2021/01/28 07:39:28;;;;;;;8.30;5.67;;;;;;;;;;5086269;28;20039;-58
2021/01/28 07:41:55;;;;;;;7.50;5.57;;;;;;;;;;5083423;28;20103;-59
2021/01/28 07:44:23;;;;;;;5.87;5.27;;;;;;;;;;5076147;28;20356;-57
2021/01/28 07:46:49;;;;;;;6.83;4.83;;;;;;;;;;5080691;28;20102;-57
2021/01/28 07:49:14;;;;;;;7.33;4.80;;;;;;;;;;5083764;28;20176;-59
2021/01/28 07:51:41;;;;;;;9.53;4.33;;;;;;;;;;5081902;28;20020;-58
2021/01/28 07:54:24;;;;;;;5.77;4.40;;;;;;;;;;5086709;28;20016;-59
2021/01/28 07:57:02;;;;;;;8.57;4.77;;;;;;;;;;5081276;28;20024;-59
2021/01/28 07:59:34;;;;;;;6.07;2.70;;;;;;;;;;5076584;28;20512;-58
2021/01/28 08:02:14;;;;;;;9.73;6.90;;;;;;;;;;5081318;28;20065;-58
2021/01/28 08:04:45;;;;;;;4.87;2.07;;;;;;;;;;5085345;28;20028;-58
2021/01/28 08:07:12;;;;;;;7.93;5.90;;;;;;;;;;5083108;28;20368;-59
2021/01/28 08:09:44;;;;;;;6.30;4.10;;;;;;;;;;5090430;28;20031;-59
2021/01/28 08:12:10;;;;;;;7.60;4.43;;;;;;;;;;5089165;28;20095;-59
2021/01/28 08:14:35;;;;;;;8.20;4.40;;;;;;;;;;5091958;28;20107;-57
2021/01/28 08:17:01;;;;;;;6.60;5.03;;;;;;;;;;5088365;28;20020;-58
2021/01/28 08:19:27;;;;;;;4.90;2.60;;;;;;;;;;5090817;28;20409;-58
2021/01/28 08:22:02;;;;;;;7.27;4.30;;;;;;;;;;5091883;28;20538;-58
2021/01/28 08:24:39;;;;;;;;;;;;;;;;;;5090496;28;20104;-58
2021/01/28 08:27:11;;;;;;;4.90;1.83;;;;;;;;;;5091491;28;20015;-57
2021/01/28 08:29:36;;;;;;;3.40;1.90;;;;;;;;;;5095885;28;20490;-59
2021/01/28 08:32:01;;;;;;;6.57;4.53;;;;;;;;;;5094691;28;20073;-59
2021/01/28 08:34:29;;;;;;;4.20;2.40;;;;;;;;;;5094957;28;20032;-59
2021/01/28 08:36:56;;;;;;;6.43;4.13;;;;;;;;;;5090655;28;20043;-58
2021/01/28 08:39:21;;;;;;;7.40;4.53;;;;;;;;;;5095816;28;20026;-59
2021/01/28 08:41:57;;;;;;;8.70;5.87;;;;;;;;;;5094172;28;20431;-57
2021/01/28 08:44:22;;;;;;;7.10;4.63;;;;;;;;;;5095017;28;20031;-58
2021/01/28 08:46:48;;;;;;;8.97;5.40;;;;;;;;;;5091512;28;20016;-58
2021/01/28 08:49:18;;;;;;;7.67;4.20;;;;;;;;;;5092004;28;20119;-59
2021/01/28 08:51:44;;;;;;;8.53;6.57;;;;;;;;;;5089162;28;20023;-57
2021/01/28 08:54:18;;;;;;;8.00;4.63;;;;;;;;;;5079505;28;20028;-57
2021/01/28 08:56:43;;;;;;;9.13;4.17;;;;;;;;;;5086550;28;20031;-59
2021/01/28 08:59:14;;;;;;;7.07;4.33;;;;;;;;;;5083593;28;20016;-58
2021/01/28 09:01:43;;;;;;;7.30;5.47;;;;;;;;;;5076396;28;20060;-61
2021/01/28 09:04:11;;;;;;;7.07;4.70;;;;;;;;;;5075856;28;20078;-59
2021/01/28 09:06:47;;;;;;;6.30;4.57;;;;;;;;;;5088238;28;20016;-58
2021/01/28 09:09:15;;;;;;;5.37;3.83;;;;;;;;;;5091148;28;20024;-58
2021/01/28 09:11:40;;;;;;;8.73;5.30;;;;;;;;;;5087038;28;20467;-59
2021/01/28 09:14:15;;;;;;;7.27;4.27;;;;;;;;;;5085358;28;20020;-58
2021/01/28 09:16:40;;;;;;;8.32;5.60;;;;;;;;;;5092135;28;20108;-59
2021/01/28 09:19:16;;;;;;;6.40;3.83;;;;;;;;;;5094860;28;20474;-59
2021/01/28 09:21:43;;;;;;;8.10;3.90;;;;;;;;;;5094837;28;20371;-60
2021/01/28 09:24:14;;;;;;;6.67;4.20;;;;;;;;;;5092451;28;20016;-59
2021/01/28 09:26:40;;;;;;;7.40;3.20;;;;;;;;;;5090895;28;20020;-59
2021/01/28 09:29:16;;;;;;;5.97;4.43;;;;;;;;;;5094725;28;20052;-56
2021/01/28 09:31:42;;;;;;;5.77;3.10;;;;;;;;;;5093300;28;20019;-58
2021/01/28 09:34:27;;;;;;;6.20;3.57;;;;;;;;;;5095335;28;20110;-57
2021/01/28 09:36:58;;;;;;;5.95;3.25;;;;;;;;;;5091177;28;20475;-58
2021/01/28 09:39:31;;;;;;;3.47;1.20;;;;;;;;;;5079514;28;20020;-58
2021/01/28 09:42:09;;;;;;;6.20;3.70;;;;;;;;;;5094889;28;20415;-58
2021/01/28 09:44:39;;;;;;;7.03;3.90;;;;;;;;;;5090406;28;20020;-58
2021/01/28 09:47:05;;;;;;;3.07;2.13;;;;;;;;;;5092131;28;20022;-57
2021/01/28 09:49:30;;;;;;;3.93;2.57;;;;;;;;;;5094246;28;20471;-55
2021/01/28 09:51:56;;;;;;;5.87;2.70;;;;;;;;;;5094259;28;20024;-60
2021/01/28 09:54:23;;;;;;;4.13;2.13;;;;;;;;;;5093420;28;20035;-59
2021/01/28 09:56:48;;;;;;;4.90;2.53;;;;;;;;;;5091335;28;20107;-59
2021/01/28 09:59:15;;;;;;;4.30;1.10;;;;;;;;;;5094156;28;20112;-58
2021/01/28 10:01:40;;;;;;;2.20;1.17;;;;;;;;;;5094056;28;20024;-60
2021/01/28 10:04:06;;;;;;;2.73;0.70;;;;;;;;;;5094213;28;20024;-58
2021/01/28 10:06:31;;;;;;;5.83;2.50;;;;;;;;;;5090748;28;20028;-58
2021/01/28 10:08:56;;;;;;;2.63;1.33;;;;;;;;;;5094022;28;20020;-57
2021/01/28 10:11:24;;;;;;;6.03;3.00;;;;;;;;;;5094160;28;20031;-55
2021/01/28 10:13:49;;;;;;;6.57;2.87;;;;;;;;;;5084348;28;20398;-57
2021/01/28 10:16:14;;;;;;;6.87;2.70;;;;;;;;;;5090849;28;20039;-58
2021/01/28 10:18:40;;;;;;;5.13;2.80;;;;;;;;;;5092453;28;20127;-58
2021/01/28 10:21:05;;;;;;;6.67;2.90;;;;;;;;;;5094150;28;20027;-56
2021/01/28 10:23:30;;;;;;;8.50;3.70;;;;;;;;;;5093596;28;20016;-58
2021/01/28 10:25:56;;;;;;;6.50;3.13;;;;;;;;;;5086721;28;20031;-58
2021/01/28 10:28:21;;;;;;;7.07;3.47;;;;;;;;;;5084508;28;20056;-56
2021/01/28 10:30:47;;;;;;;5.73;4.30;;;;;;;;;;5091517;28;20063;-58
2021/01/28 10:33:12;;;;;;;7.10;2.77;;;;;;;;;;5073931;28;20025;-57
2021/01/28 10:35:38;;;;;;;8.20;3.20;;;;;;;;;;5090599;28;20467;-58
2021/01/28 10:38:04;;;;;;;4.77;2.40;;;;;;;;;;5093072;28;20016;-58
2021/01/28 10:40:30;;;;;;;8.03;3.67;;;;;;;;;;5093702;28;20565;-59
2021/01/28 10:42:56;;;;;;;7.93;3.93;;;;;;;;;;5093573;28;20091;-56
2021/01/28 10:45:24;;;;;;;5.33;2.50;;;;;;;;;;5088688;28;20435;-58
2021/01/28 10:47:51;;;;;;;7.23;3.00;;;;;;;;;;5093250;28;20069;-58
2021/01/28 10:50:16;;;;;;;9.27;3.70;;;;;;;;;;5093395;28;20023;-58
2021/01/28 10:52:42;;;;;;;7.50;3.37;;;;;;;;;;5093171;28;20489;-59
2021/01/28 10:55:08;;;;;;;7.00;3.23;;;;;;;;;;5090453;28;20016;-59
2021/01/28 10:57:33;;;;;;;4.70;2.33;;;;;;;;;;5093055;28;20474;-59
2021/01/28 10:59:58;;;;;;;8.18;3.13;;;;;;;;;;5093063;28;20052;-60
2021/01/28 11:02:23;;;;;;;5.70;2.90;;;;;;;;;;5093272;28;20070;-60
2021/01/28 11:04:49;;;;;;;7.38;3.10;;;;;;;;;;5091251;28;20099;-60
2021/01/28 11:07:14;;;;;;;6.50;2.90;;;;;;;;;;5088783;28;20016;-59
2021/01/28 11:09:39;;;;;;;7.25;3.65;;;;;;;;;;5092723;28;20031;-55
2021/01/28 11:12:05;;;;;;;6.30;2.92;;;;;;;;;;5091511;28;20023;-58
2021/01/28 11:14:30;;;;;;;7.40;3.72;;;;;;;;;;5092738;28;20027;-59
2021/01/28 11:16:56;;;;;;;9.97;3.93;;;;;;;;;;5087448;28;20028;-60
2021/01/28 11:19:21;;;;;;;7.93;4.40;;;;;;;;;;5084894;28;20044;-59
2021/01/28 11:21:46;;;;;;;12.03;4.67;;;;;;;;;;5092694;28;20103;-58
2021/01/28 11:24:12;;;;;;;5.87;2.83;;;;;;;;;;5088669;28;20099;-56
2021/01/28 11:26:37;;;;;;;5.60;3.13;;;;;;;;;;5077430;28;20024;-59
2021/01/28 11:29:04;;;;;;;6.30;2.70;;;;;;;;;;5092373;28;20380;-59
2021/01/28 11:31:32;;;;;;;6.97;2.43;;;;;;;;;;5091258;28;20039;-58
2021/01/28 11:33:57;;;;;;;6.73;3.30;;;;;;;;;;5092208;28;20073;-58
2021/01/28 11:36:23;;;;;;;9.40;4.10;;;;;;;;;;5085281;28;20020;-59
2021/01/28 11:38:48;;;;;;;8.63;3.60;;;;;;;;;;5075784;28;20025;-57
2021/01/28 11:41:13;;;;;;;7.45;2.60;;;;;;;;;;5072388;28;20022;-59
2021/01/28 11:43:38;;;;;;;4.90;2.55;;;;;;;;;;5092261;28;20371;-59
2021/01/28 11:46:04;;;;;;;8.03;3.50;;;;;;;;;;5087839;28;20425;-59
2021/01/28 11:48:29;;;;;;;6.80;4.18;;;;;;;;;;5091528;28;20382;-59
2021/01/28 11:50:54;;;;;;;8.40;3.75;;;;;;;;;;5091053;28;20360;-58
2021/01/28 11:53:19;;;;;;;7.47;3.03;;;;;;;;;;5092272;28;20417;-60
2021/01/28 11:55:44;;;;;;;6.90;2.28;;;;;;;;;;5089129;28;20433;-57
2021/01/28 11:58:11;;;;;;;7.18;3.03;;;;;;;;;;5079933;28;20013;-60
2021/01/28 12:00:36;;;;;;;7.23;3.33;;;;;;;;;;5091734;28;20020;-60
2021/01/28 12:03:04;;;;;;;3.72;1.73;;;;;;;;;;5080972;28;20068;-60
2021/01/28 12:05:29;;;;;;;3.47;1.63;;;;;;;;;;5084288;28;20027;-56
2021/01/28 12:07:56;;;;;;;7.00;2.97;;;;;;;;;;5091883;28;20020;-60
2021/01/28 12:10:22;;;;;;;8.38;3.95;;;;;;;;;;5092347;28;20514;-59
2021/01/28 12:12:48;;;;;;;6.32;2.65;;;;;;;;;;5090903;28;20097;-59
2021/01/28 12:15:14;;;;;;;6.93;3.20;;;;;;;;;;5089221;28;20052;-59
2021/01/28 12:17:39;;;;;;;11.02;5.10;;;;;;;;;;5092203;28;20023;-58
2021/01/28 12:20:05;;;;;;;6.45;3.58;;;;;;;;;;5089386;28;20020;-59
2021/01/28 12:22:31;;;;;;;6.88;3.70;;;;;;;;;;5091728;28;20043;-58
2021/01/28 12:24:56;;;;;;;7.13;3.75;;;;;;;;;;5090244;28;20074;-58
2021/01/28 12:27:21;;;;;;;7.53;3.83;;;;;;;;;;5087608;28;20116;-59
2021/01/28 12:29:47;;;;;;;6.72;4.07;;;;;;;;;;5089894;28;20034;-58
2021/01/28 12:32:12;;;;;;;8.75;4.43;;;;;;;;;;5075356;28;20017;-60
2021/01/28 12:34:37;;;;;;;9.98;4.80;;;;;;;;;;5092062;28;20052;-60
2021/01/28 12:37:03;;;;;;;9.48;5.00;;;;;;;;;;5088766;28;20036;-60
2021/01/28 12:39:29;;;;;;;9.13;4.68;;;;;;;;;;5091288;28;20394;-59
2021/01/28 12:41:54;;;;;;;11.57;4.88;;;;;;;;;;5091731;28;20027;-60
2021/01/28 12:44:19;;;;;;;9.93;4.75;;;;;;;;;;5080954;28;20066;-58
2021/01/28 12:46:45;;;;;;;8.32;4.78;;;;;;;;;;5068771;28;20048;-60
2021/01/28 12:49:10;;;;;;;11.32;5.00;;;;;;;;;;5073112;28;20027;-58
2021/01/28 12:51:35;;;;;;;10.77;5.00;;;;;;;;;;5088024;28;20079;-58
2021/01/28 12:54:00;;;;;;;7.47;5.07;;;;;;;;;;5091262;28;20503;-60
2021/01/28 12:56:26;;;;;;;11.13;4.75;;;;;;;;;;5088568;28;20017;-60
2021/01/28 12:58:51;;;;;;;9.38;5.00;;;;;;;;;;5088703;28;20016;-59
2021/01/28 13:01:16;;;;;;;8.63;4.90;;;;;;;;;;5090530;28;20144;-59
2021/01/28 13:03:41;;;;;;;10.65;5.97;;;;;;;;;;5082865;28;20027;-56
2021/01/28 13:06:07;;;;;;;9.98;5.35;;;;;;;;;;5088625;28;20031;-59
2021/01/28 13:08:32;;;;;;;7.47;4.78;;;;;;;;;;5091365;28;20068;-60
2021/01/28 13:10:57;;;;;;;8.25;4.25;;;;;;;;;;5095221;28;20502;-58
2021/01/28 13:13:22;;;;;;;9.38;4.72;;;;;;;;;;5095387;28;20020;-59
2021/01/28 13:15:48;;;;;;;8.32;5.07;;;;;;;;;;5092221;28;20028;-58
2021/01/28 13:18:13;;;;;;;8.27;4.30;;;;;;;;;;5094784;28;20043;-58
2021/01/28 13:20:39;;;;;;;6.18;4.25;;;;;;;;;;5090489;28;20030;-60
2021/01/28 13:23:04;;;;;;;8.02;4.20;;;;;;;;;;5087126;28;20024;-60
2021/01/28 13:25:30;;;;;;;7.32;3.92;;;;;;;;;;5076638;28;20340;-58
2021/01/28 13:27:55;;;;;;;9.10;4.35;;;;;;;;;;5076175;28;20733;-59
2021/01/28 13:30:22;;;;;;;7.57;4.07;;;;;;;;;;5085305;28;20146;-58
2021/01/28 13:32:47;;;;;;;9.25;4.82;;;;;;;;;;5083662;28;20062;-59
2021/01/28 13:35:14;;;;;;;9.55;4.97;;;;;;;;;;5086396;28;20474;-60
2021/01/28 13:37:39;;;;;;;10.70;5.30;;;;;;;;;;5083291;28;20059;-59
2021/01/28 13:40:05;;;;;;;10.30;5.20;;;;;;;;;;5082524;28;20041;-59
2021/01/28 13:42:30;;;;;;;8.77;5.07;;;;;;;;;;5085742;28;20027;-59
2021/01/28 13:44:55;;;;;;;8.75;4.30;;;;;;;;;;5087766;28;20031;-60
2021/01/28 13:47:21;;;;;;;9.05;4.18;;;;;;;;;;5087887;28;20085;-59
2021/01/28 13:49:46;;;;;;;10.70;5.28;;;;;;;;;;5087436;28;20059;-58
2021/01/28 13:52:11;;;;;;;8.68;4.30;;;;;;;;;;5088732;28;20378;-59
2021/01/28 13:54:37;;;;;;;9.57;5.25;;;;;;;;;;5089339;28;20020;-58
2021/01/28 13:57:02;;;;;;;13.52;6.55;;;;;;;;;;5081513;28;20035;-58
2021/01/28 13:59:27;;;;;;;10.07;5.22;;;;;;;;;;5089534;28;20030;-58
2021/01/28 14:01:52;;;;;;;7.70;5.57;;;;;;;;;;5087430;28;20028;-59
2021/01/28 14:04:18;;;;;;;13.70;6.43;;;;;;;;;;5084121;28;20114;-59
2021/01/28 14:06:43;;;;;;;11.57;5.80;;;;;;;;;;5084661;28;20028;-59
2021/01/28 14:09:08;;;;;;;10.15;5.65;;;;;;;;;;5086503;28;20031;-59
2021/01/28 14:11:33;;;;;;;9.27;5.13;;;;;;;;;;5089421;28;20016;-58
2021/01/28 14:14:00;;;;;;;9.32;5.50;;;;;;;;;;5087507;28;20776;-58
2021/01/28 14:16:25;;;;;;;12.35;5.75;;;;;;;;;;5066889;28;20047;-58
2021/01/28 14:18:50;;;;;;;11.90;6.22;;;;;;;;;;5083813;28;20024;-60
2021/01/28 14:21:16;;;;;;;10.68;5.20;;;;;;;;;;5085727;28;20019;-60
2021/01/28 14:23:41;;;;;;;13.18;6.28;;;;;;;;;;5087361;28;20542;-58
2021/01/28 14:26:07;;;;;;;10.90;6.38;;;;;;;;;;5080352;28;20020;-60
2021/01/28 14:28:32;;;;;;;10.30;5.82;;;;;;;;;;5087813;28;20051;-60
2021/01/28 14:30:57;;;;;;;12.13;5.90;;;;;;;;;;5085398;28;20028;-59
2021/01/28 14:33:23;;;;;;;11.30;5.47;;;;;;;;;;5087150;28;20019;-60
2021/01/28 14:35:50;;;;;;;10.95;4.72;;;;;;;;;;5082861;28;20407;-60
2021/01/28 14:38:15;;;;;;;9.90;5.07;;;;;;;;;;5087874;28;20020;-59
2021/01/28 14:40:40;;;;;;;6.68;4.88;;;;;;;;;;5085841;28;20024;-60